Time;durP1;ratioP1;P1;durP2;ratioP2;P2;SDS_P1;SDS_P2;PMS_P1;PMS_P2;Temp;Humidity;BMP_temperature;BMP_pressure;BME280_temperature;BME280_humidity;BME280_pressure;Samples;Min_cycle;Max_cycle;Signal;HPM_P1;HPM_P2
2022/09/03 00:09:14;;;;;;;0.87;0.50;;;;;;;;;;20718676;28;20254;-73
2022/09/03 00:19:17;;;;;;;1.17;0.40;;;;;;;;;;20701702;28;20315;-73
2022/09/03 00:29:28;;;;;;;0.67;0.37;;;;;;;;;;20699866;28;20225;-73
2022/09/03 00:39:30;;;;;;;0.65;0.30;;;;;;;;;;20721546;28;20620;-73
2022/09/03 00:49:40;;;;;;;0.27;0.27;;;;;;;;;;20732011;22;20224;-72
2022/09/03 00:59:51;;;;;;;0.60;0.30;;;21.30;94.10;;;;;;20814302;28;20210;-72
2022/09/03 01:10:17;;;;;;;0.50;0.37;;;21.30;83.90;;;;;;20762458;28;20228;-71
2022/09/03 01:20:22;;;;;;;0.30;0.30;;;;;;;;;;20734395;28;20276;-72
2022/09/03 01:30:24;;;;;;;0.77;0.40;;;;;;;;;;20736625;28;20226;-72
2022/09/03 01:40:51;;;;;;;1.50;0.40;;;21.10;84.70;;;;;;20736883;28;20669;-72
2022/09/03 01:51:03;;;;;;;0.97;0.40;;;21.00;96.00;;;;;;20732058;28;20253;-72
2022/09/03 02:01:13;;;;;;;1.53;0.50;;;20.90;98.40;;;;;;20734130;28;20222;-72
2022/09/03 02:11:16;;;;;;;2.47;0.40;;;;;;;;;;20762529;28;20205;-72
2022/09/03 02:21:20;;;;;;;0.87;0.50;;;20.80;99.90;;;;;;20759787;28;20290;-72
2022/09/03 02:31:21;;;;;;;1.23;0.40;;;;;;;;;;20735458;28;20565;-72
2022/09/03 02:41:26;;;;;;;2.07;0.30;;;;;;;;;;20748303;28;20300;-71
2022/09/03 02:51:31;;;;;;;0.33;0.30;;;;;;;;;;20745898;28;20247;-72
2022/09/03 03:01:33;;;;;;;1.03;0.30;;;;;;;;;;20747012;28;20214;-72
2022/09/03 03:11:35;;;;;;;0.37;0.30;;;;;;;;;;20745496;28;20237;-72
2022/09/03 03:21:37;;;;;;;0.50;0.30;;;;;;;;;;20745536;28;20276;-72
2022/09/03 03:31:39;;;;;;;0.57;0.20;;;;;;;;;;20744647;28;20198;-72
2022/09/03 03:41:41;;;;;;;0.40;0.30;;;;;;;;;;20790306;28;20237;-72
2022/09/03 03:51:43;;;;;;;0.80;0.40;;;;;;;;;;20825000;28;20221;-71
2022/09/03 04:01:44;;;;;;;0.20;0.20;;;;;;;;;;20824129;28;20262;-72
2022/09/03 04:11:46;;;;;;;2.50;0.40;;;;;;;;;;20775927;28;20210;-72
2022/09/03 04:21:48;;;;;;;0.87;0.33;;;;;;;;;;20740974;28;20226;-70
2022/09/03 04:42:09;;;;;;;0.50;0.40;;;;;;;;;;20707020;28;20211;-71
2022/09/03 04:52:11;;;;;;;0.33;0.30;;;;;;;;;;20717060;28;20275;-71
2022/09/03 05:02:14;;;;;;;3.13;0.70;;;;;;;;;;20743250;28;20629;-70
2022/09/03 05:12:16;;;;;;;1.03;0.50;;;;;;;;;;20763175;28;20240;-70
2022/09/03 05:22:20;;;;;;;0.50;0.40;;;;;;;;;;20787773;28;20322;-71
2022/09/03 05:32:21;;;;;;;1.63;0.83;;;;;;;;;;20768835;28;20284;-68
2022/09/03 05:42:23;;;;;;;0.90;0.50;;;;;;;;;;20764764;28;20221;-71
2022/09/03 05:52:25;;;;;;;0.30;0.30;;;;;;;;;;20780483;28;20226;-71
2022/09/03 06:02:27;;;;;;;0.30;0.27;;;;;;;;;;20795080;28;20771;-70
2022/09/03 06:12:28;;;;;;;0.90;0.47;;;;;;;;;;20803973;28;20214;-71
2022/09/03 06:22:30;;;;;;;0.50;0.40;;;;;;;;;;20775956;28;20233;-68
2022/09/03 06:32:32;;;;;;;1.97;1.17;;;;;;;;;;20806297;28;20291;-71
2022/09/03 06:42:37;;;;;;;1.37;0.40;;;;;;;;;;20781597;28;20644;-71
2022/09/03 06:52:42;;;;;;;0.97;0.33;;;;;;;;;;20714061;28;20307;-71
2022/09/03 07:02:47;;;;;;;0.50;0.30;;;;;;;;;;20794966;28;20231;-71
2022/09/03 07:12:49;;;;;;;0.97;0.50;;;;;;;;;;20752744;28;20213;-71
2022/09/03 07:22:54;;;;;;;0.97;0.50;;;;;;;;;;20838105;22;20224;-72
2022/09/03 07:33:03;;;;;;;1.20;0.60;;;;;;;;;;20791965;28;20204;-72
2022/09/03 07:43:05;;;;;;;0.83;0.53;;;18.70;99.90;;;;;;20799330;28;20371;-73
2022/09/03 07:53:07;;;;;;;2.00;0.53;;;;;;;;;;20779128;28;20223;-73
2022/09/03 08:03:09;;;;;;;0.80;0.47;;;;;;;;;;20852877;28;20223;-73
2022/09/03 08:13:11;;;;;;;1.23;0.70;;;;;;;;;;20813748;28;20257;-73
2022/09/03 08:23:14;;;;;;;0.83;0.53;;;;;;;;;;20769606;28;20216;-73
2022/09/03 08:33:16;;;;;;;2.90;0.70;;;;;;;;;;20772931;28;20215;-73
2022/09/03 08:43:18;;;;;;;2.10;0.87;;;;;;;;;;20762509;28;20603;-72
2022/09/03 08:53:27;;;;;;;17.90;9.47;;;;;;;;;;20791879;28;20218;-72
2022/09/03 09:03:35;;;;;;;1.73;0.70;;;;;;;;;;20774069;28;20302;-72
2022/09/03 09:13:46;;;;;;;1.03;0.83;;;;;;;;;;20779332;28;20827;-72
2022/09/03 09:23:48;;;;;;;1.03;0.60;;;;;;;;;;20779035;28;20228;-72
2022/09/03 09:33:51;;;;;;;1.03;0.77;;;;;;;;;;20778364;28;20753;-72
2022/09/03 09:44:06;;;;;;;1.43;0.80;;;;;;;;;;20786551;28;20240;-72
2022/09/03 09:54:08;;;;;;;1.50;0.90;;;;;;;;;;20794097;28;20221;-72
2022/09/03 10:04:12;;;;;;;1.33;0.70;;;19.90;99.90;;;;;;20794783;28;20224;-72
2022/09/03 10:14:19;;;;;;;1.30;0.80;;;20.90;99.90;;;;;;20801559;28;20208;-72
2022/09/03 10:24:30;;;;;;;2.20;1.03;;;;;;;;;;20800453;28;20698;-72
2022/09/03 10:34:41;;;;;;;1.83;0.90;;;20.00;99.90;;;;;;20816106;28;20205;-72
2022/09/03 10:44:46;;;;;;;1.63;0.93;;;;;;;;;;20798542;28;20278;-72
2022/09/03 10:54:53;;;;;;;1.40;1.07;;;;;;;;;;20812554;28;20243;-72
2022/09/03 11:05:02;;;;;;;1.77;1.20;;;;;;;;;;20813287;28;20217;-72
2022/09/03 11:15:07;;;;;;;1.40;1.00;;;;;;;;;;20812061;28;20222;-72
2022/09/03 11:25:10;;;;;;;2.20;1.20;;;;;;;;;;20795223;28;20234;-72
2022/09/03 11:35:17;;;;;;;2.10;1.30;;;;;;;;;;20794214;28;20271;-73
2022/09/03 11:45:31;;;;;;;1.20;0.80;;;;;;;;;;20793648;28;20272;-73
2022/09/03 11:55:45;;;;;;;1.30;0.80;;;;;;;;;;20809120;28;20199;-73
2022/09/03 12:05:56;;;;;;;0.90;0.60;;;;;;;;;;20791404;28;20637;-73
2022/09/03 12:15:58;;;;;;;1.13;0.50;;;;;;;;;;20790918;28;20208;-73
2022/09/03 12:26:03;;;;;;;1.05;0.63;;;;;;;;;;20806164;28;20259;-73
2022/09/03 12:36:05;;;;;;;0.77;0.60;;;;;;;;;;20789476;28;20638;-73
2022/09/03 12:46:14;;;;;;;1.20;0.70;;;23.00;99.90;;;;;;20788498;28;20230;-72
2022/09/03 12:56:17;;;;;;;1.52;0.77;;;;;;;;;;20788331;28;20286;-72
2022/09/03 13:06:25;;;;;;;1.92;1.00;;;;;;;;;;20787206;28;20765;-73
2022/09/03 13:16:29;;;;;;;1.50;0.77;;;;;;;;;;20786209;28;20247;-73
2022/09/03 13:26:51;;;;;;;0.98;0.73;;;;;;;;;;20786356;28;20689;-75
2022/09/03 13:36:57;;;;;;;0.98;0.73;;;;;;;;;;20800799;28;20276;-75
2022/09/03 13:47:00;;;;;;;1.20;0.77;;;;;;;;;;20785729;28;20224;-75
2022/09/03 13:57:15;;;;;;;1.17;0.70;;;;;;;;;;20801338;28;20298;-75
2022/09/03 14:07:21;;;;;;;1.25;0.60;;;;;;;;;;20785138;28;20245;-75
2022/09/03 14:17:42;;;;;;;0.88;0.63;;;;;;;;;;20784555;28;20291;-74
2022/09/03 14:27:44;;;;;;;1.30;0.73;;;;;;;;;;20786967;28;20222;-74
2022/09/03 14:38:04;;;;;;;1.20;0.80;;;;;;;;;;20798276;28;20567;-75
2022/09/03 14:48:38;;;;;;;1.95;1.17;;;;;;;;;;20797758;28;20303;-75
2022/09/03 14:59:12;;;;;;;2.83;1.00;;;21.70;99.90;;;;;;20755121;28;20629;-75
2022/09/03 15:09:40;;;;;;;0.80;0.60;;;;;;;;;;20796251;28;20225;-75
2022/09/03 15:19:45;;;;;;;0.50;0.40;;;;;;;;;;20766485;28;20230;-76
2022/09/03 15:30:06;;;;;;;0.67;0.50;;;;;;;;;;20795723;28;20220;-75
2022/09/03 15:40:44;;;;;;;0.80;0.60;;;21.10;99.90;;;;;;20794773;28;20206;-76
2022/09/03 15:50:52;;;;;;;1.53;0.80;;;;;;;;;;20783567;28;20384;-76
2022/09/03 16:01:08;;;;;;;1.63;0.80;;;21.00;99.90;;;;;;20805930;28;20220;-76
2022/09/03 16:11:21;;;;;;;2.30;0.93;;;;;;;;;;20791650;28;20703;-76
2022/09/03 16:21:24;;;;;;;1.00;0.53;;;;;;;;;;20785499;28;20237;-75
2022/09/03 16:31:35;;;;;;;2.70;1.23;;;;;;;;;;20789060;28;20647;-75
2022/09/03 16:41:37;;;;;;;1.17;0.80;;;;;;;;;;20790065;28;20213;-74
2022/09/03 16:51:58;;;;;;;1.30;0.80;;;;;;;;;;20789481;28;20263;-75
2022/09/03 17:02:13;;;;;;;1.60;1.10;;;;;;;;;;20806056;28;20226;-75
2022/09/03 17:12:25;;;;;;;8.97;6.17;;;21.40;99.90;;;;;;20796653;28;20208;-75
2022/09/03 17:22:38;;;;;;;7.53;6.23;;;;;;;;;;20769237;28;20218;-75
2022/09/03 17:32:55;;;;;;;1.90;1.60;;;;;;;;;;20786061;28;20766;-75
2022/09/03 17:43:00;;;;;;;4.50;3.77;;;;;;;;;;20786274;28;20217;-75
2022/09/03 17:53:09;;;;;;;2.17;1.77;;;;;;;;;;20784853;28;20431;-75
2022/09/03 18:03:22;;;;;;;1.83;1.30;;;;;;;;;;20806545;28;20252;-75
2022/09/03 18:13:39;;;;;;;3.63;3.07;;;;;;;;;;20800656;28;20214;-75
2022/09/03 20:19:48;;;;;;;2.30;1.60;;;;;;;;;;20793381;28;20652;-76
2022/09/03 20:29:59;;;;;;;3.53;1.40;;;;;;;;;;20788956;28;20225;-76
2022/09/03 20:40:07;;;;;;;2.00;1.23;;;;;;;;;;20802750;28;20229;-76
2022/09/03 20:50:34;;;;;;;2.30;1.30;;;;;;;;;;20784704;28;20228;-76
2022/09/03 21:00:58;;;;;;;1.77;1.20;;;;;;;;;;20762402;28;20217;-75
2022/09/03 21:11:18;;;;;;;1.97;1.27;;;;;;;;;;20789840;28;20259;-75
2022/09/03 21:21:31;;;;;;;1.83;1.20;;;;;;;;;;20787823;28;20282;-75
2022/09/03 21:31:36;;;;;;;2.33;1.37;;;;;;;;;;20787083;28;20705;-75
2022/09/03 21:41:52;;;;;;;2.47;1.40;;;20.00;99.90;;;;;;20797443;28;20308;-75
2022/09/03 21:52:12;;;;;;;1.73;1.20;;;;;;;;;;20791517;28;20578;-76
2022/09/03 22:02:17;;;;;;;2.00;1.50;;;;;;;;;;20800122;28;20212;-75
2022/09/03 22:12:39;;;;;;;2.40;1.70;;;19.90;99.90;;;;;;20801402;28;20200;-76
2022/09/03 22:22:46;;;;;;;2.03;1.40;;;;;;;;;;20796967;28;20221;-76
2022/09/03 22:32:51;;;;;;;2.47;1.50;;;;;;;;;;20799865;28;20212;-76
2022/09/03 22:43:00;;;;;;;1.90;1.40;;;;;;;;;;20815105;28;20219;-76
2022/09/03 22:53:25;;;;;;;2.47;1.37;;;;;;;;;;20797173;28;20208;-76
2022/09/03 23:03:35;;;;;;;1.90;1.40;;;;;;;;;;20761390;28;20765;-76
2022/09/03 23:13:48;;;;;;;2.30;1.80;;;;;;;;;;20790015;28;20270;-76
2022/09/03 23:23:53;;;;;;;2.07;1.67;;;;;;;;;;20795653;28;20794;-76
2022/09/03 23:33:56;;;;;;;2.10;1.60;;;;;;;;;;20795213;28;20269;-76
2022/09/03 23:44:01;;;;;;;3.37;1.70;;;;;;;;;;20794418;28;20219;-76
2022/09/03 23:54:03;;;;;;;2.20;1.33;;;;;;;;;;20789569;28;20219;-76
